createdAt,value
2023-07-27T00:00:01.024Z,15.1
2023-07-27T00:03:01.010Z,14.8
2023-07-27T00:06:00.984Z,14.8
2023-07-27T00:09:01.007Z,14.8
2023-07-27T00:12:01.075Z,14.8
2023-07-27T00:15:00.998Z,14.8
2023-07-27T00:18:01.231Z,14.8
2023-07-27T00:21:00.937Z,14.8
2023-07-27T00:24:00.994Z,14.8
2023-07-27T00:27:01.065Z,14.8
2023-07-27T00:30:00.997Z,14.8
2023-07-27T00:33:01.089Z,14.8
2023-07-27T00:36:00.952Z,14.8
2023-07-27T00:39:00.958Z,14.8
2023-07-27T00:42:00.983Z,14.3
2023-07-27T00:45:00.995Z,14.3
2023-07-27T00:48:01.028Z,14.3
2023-07-27T00:51:00.945Z,14.3
2023-07-27T00:54:00.964Z,14.3
2023-07-27T00:57:00.940Z,14.3
2023-07-27T01:00:00.959Z,14.3
2023-07-27T01:03:01.152Z,14.1
2023-07-27T01:06:00.973Z,14.1
2023-07-27T01:09:00.937Z,14.1
2023-07-27T01:12:00.955Z,14.1
2023-07-27T01:15:00.991Z,14.1
2023-07-27T01:18:01.093Z,14.1
2023-07-27T01:21:00.959Z,14.1
2023-07-27T01:24:01.067Z,14.1
2023-07-27T01:27:01.064Z,13.8
2023-07-27T01:30:00.977Z,13.8
2023-07-27T01:33:01.068Z,13.8
2023-07-27T01:36:00.983Z,13.8
2023-07-27T01:39:00.945Z,13.8
2023-07-27T01:42:01.073Z,13.8
2023-07-27T01:45:00.962Z,13.8
2023-07-27T01:48:01.003Z,13.8
2023-07-27T01:51:01.048Z,13.8
2023-07-27T01:54:00.922Z,13.8
2023-07-27T01:57:01.119Z,13.5
2023-07-27T02:00:00.902Z,13.5
2023-07-27T02:03:01.183Z,13.5
2023-07-27T02:06:00.989Z,13.5
2023-07-27T02:09:01.075Z,13.5
2023-07-27T02:12:01.012Z,13.5
2023-07-27T02:15:00.986Z,13.5
2023-07-27T02:18:01.458Z,13.5
2023-07-27T02:21:00.983Z,13.4
2023-07-27T02:24:00.998Z,13.4
2023-07-27T02:27:00.961Z,13.4
2023-07-27T02:30:00.972Z,13.4
2023-07-27T02:33:01.120Z,13.4
2023-07-27T02:36:00.989Z,13.4
2023-07-27T02:39:00.924Z,13.4
2023-07-27T02:42:01.000Z,13.4
2023-07-27T02:45:00.923Z,13.4
2023-07-27T02:48:01.051Z,13.4
2023-07-27T02:51:00.987Z,13.4
2023-07-27T02:54:00.993Z,13.4
2023-07-27T02:57:00.960Z,13.4
2023-07-27T03:00:01.313Z,13.7
2023-07-27T03:03:01.153Z,13.7
2023-07-27T03:06:00.906Z,13.7
2023-07-27T03:09:00.951Z,13.7
2023-07-27T03:12:00.933Z,13.7
2023-07-27T03:15:01.044Z,13.7
2023-07-27T03:18:00.992Z,13.7
2023-07-27T03:21:00.940Z,13.7
2023-07-27T03:24:01.005Z,13.7
2023-07-27T03:27:00.945Z,13.7
2023-07-27T03:30:01.827Z,13.7
2023-07-27T03:33:01.112Z,13.7
2023-07-27T03:36:01.111Z,13.7
2023-07-27T03:39:00.968Z,13.7
2023-07-27T03:42:01.033Z,13.7
2023-07-27T03:45:00.968Z,13.7
2023-07-27T03:48:01.156Z,13.7
2023-07-27T03:51:00.953Z,13.9
2023-07-27T03:54:01.033Z,13.9
2023-07-27T03:57:00.951Z,13.9
2023-07-27T04:00:01.049Z,13.9
2023-07-27T04:03:01.058Z,13.9
2023-07-27T04:06:01.027Z,13.9
2023-07-27T04:09:00.961Z,13.9
2023-07-27T04:12:01.098Z,13.9
2023-07-27T04:15:01.060Z,13.9
2023-07-27T04:18:01.313Z,13.9
2023-07-27T04:21:01.039Z,13.9
2023-07-27T04:24:01.077Z,13.9
2023-07-27T04:27:00.953Z,13.9
2023-07-27T04:30:01.091Z,13.9
2023-07-27T04:33:01.063Z,13.9
2023-07-27T04:36:01.065Z,13.9
2023-07-27T04:39:01.060Z,13.9
2023-07-27T04:42:01.024Z,13.9
2023-07-27T04:45:01.603Z,13.9
2023-07-27T04:48:01.132Z,13.9
2023-07-27T04:51:01.074Z,13.9
2023-07-27T04:54:01.033Z,13.9
2023-07-27T04:57:01.119Z,13.9
2023-07-27T05:00:01.125Z,13.9
2023-07-27T05:03:01.036Z,13.9
2023-07-27T05:06:01.073Z,14.4
2023-07-27T05:09:01.030Z,14.4
2023-07-27T05:12:01.048Z,14.4
2023-07-27T05:15:01.057Z,14.4
2023-07-27T05:18:01.120Z,14.4
2023-07-27T05:21:01.052Z,14.4
2023-07-27T05:24:01.029Z,14.4
2023-07-27T05:27:01.058Z,14.4
2023-07-27T05:30:01.471Z,14.4
2023-07-27T05:33:00.993Z,14.4
2023-07-27T05:36:01.053Z,14.6
2023-07-27T05:39:01.056Z,14.6
2023-07-27T05:42:01.024Z,14.6
2023-07-27T05:45:00.948Z,14.6
2023-07-27T05:48:01.102Z,14.6
2023-07-27T05:51:01.065Z,14.6
2023-07-27T05:54:01.050Z,14.6
2023-07-27T05:57:01.029Z,14.6
2023-07-27T06:00:07.811Z,14.6
2023-07-27T06:03:01.040Z,14.6
2023-07-27T06:06:01.016Z,14.6
2023-07-27T06:09:01.021Z,14.6
2023-07-27T06:12:01.043Z,14.6
2023-07-27T06:15:00.964Z,14.6
2023-07-27T06:18:01.090Z,14.6
2023-07-27T06:21:00.976Z,14.6
2023-07-27T06:24:01.030Z,15.2
2023-07-27T06:27:00.992Z,15.2
2023-07-27T06:30:01.220Z,15.2
2023-07-27T06:33:01.067Z,15.2
2023-07-27T06:36:01.044Z,15.2
2023-07-27T06:39:01.049Z,15.2
2023-07-27T06:42:01.051Z,15.2
2023-07-27T06:45:01.003Z,15.2
2023-07-27T06:48:01.303Z,15.2
2023-07-27T06:51:00.985Z,15.2
2023-07-27T06:54:01.029Z,15.7
2023-07-27T06:57:00.993Z,15.7
2023-07-27T07:00:01.035Z,15.7
2023-07-27T07:03:01.254Z,15.7
2023-07-27T07:06:01.059Z,15.7
2023-07-27T07:09:01.027Z,16
2023-07-27T07:12:01.043Z,16
2023-07-27T07:15:01.157Z,16
2023-07-27T07:18:01.140Z,16
2023-07-27T07:21:01.041Z,16.6
2023-07-27T07:24:01.026Z,16.6
2023-07-27T07:27:01.051Z,16.6
2023-07-27T07:30:01.056Z,16.6
2023-07-27T07:33:01.291Z,16.6
2023-07-27T07:36:01.044Z,16.6
2023-07-27T07:39:01.002Z,16.6
2023-07-27T07:42:01.022Z,16.6
2023-07-27T07:45:01.017Z,16.6
2023-07-27T07:48:01.035Z,17.1
2023-07-27T07:51:01.119Z,17.1
2023-07-27T07:54:01.018Z,17.1
2023-07-27T07:57:01.044Z,17.1
2023-07-27T08:00:01.048Z,17.1
2023-07-27T08:03:01.209Z,17.1
2023-07-27T08:06:02.087Z,17.1
2023-07-27T08:09:01.063Z,17.1
2023-07-27T08:12:00.996Z,17.1
2023-07-27T08:15:01.074Z,17.1
2023-07-27T08:18:01.056Z,17.1
2023-07-27T08:21:01.048Z,16.8
2023-07-27T08:24:01.008Z,16.8
2023-07-27T08:27:01.110Z,16.8
2023-07-27T08:30:01.202Z,16.8
2023-07-27T08:33:01.101Z,16.8
2023-07-27T08:36:03.132Z,16.8
2023-07-27T08:39:00.976Z,16.8
2023-07-27T08:42:01.104Z,16.8
2023-07-27T08:45:01.136Z,16.6
2023-07-27T08:48:01.136Z,16.6
2023-07-27T08:51:01.029Z,16.6
2023-07-27T08:54:01.053Z,16.6
2023-07-27T08:57:01.004Z,16.6
2023-07-27T09:00:01.043Z,16.8
2023-07-27T09:03:01.287Z,16.8
2023-07-27T09:06:01.136Z,16.8
2023-07-27T09:09:00.984Z,16.8
2023-07-27T09:12:01.049Z,17
2023-07-27T09:15:00.982Z,17
2023-07-27T09:18:01.129Z,17
2023-07-27T09:21:01.149Z,17.2
2023-07-27T09:24:01.097Z,17.2
2023-07-27T09:27:01.013Z,17.2
2023-07-27T09:30:01.040Z,17.4
2023-07-27T09:33:01.101Z,17.4
2023-07-27T09:36:01.249Z,17.4
2023-07-27T09:39:01.013Z,17.4
2023-07-27T09:42:01.094Z,17.4
2023-07-27T09:45:01.077Z,17.4
2023-07-27T09:48:01.146Z,17.8
2023-07-27T09:51:01.001Z,17.8
2023-07-27T09:54:01.066Z,17.8
2023-07-27T09:57:01.022Z,17.8
2023-07-27T10:00:01.135Z,17.8
2023-07-27T10:03:10.748Z,17.8
2023-07-27T10:06:01.035Z,17.8
2023-07-27T10:09:01.010Z,17.8
2023-07-27T10:12:01.152Z,17.8
2023-07-27T10:15:01.058Z,17.8
2023-07-27T10:18:01.113Z,17.8
2023-07-27T10:21:01.097Z,17.8
2023-07-27T10:24:01.105Z,17.8
2023-07-27T10:27:00.970Z,17.8
2023-07-27T10:30:00.992Z,17.8
2023-07-27T10:33:01.051Z,17.8
2023-07-27T10:36:00.990Z,17.8
2023-07-27T10:39:01.014Z,18.1
2023-07-27T10:42:01.136Z,18.1
2023-07-27T10:45:01.058Z,18.1
2023-07-27T10:48:01.120Z,18.1
2023-07-27T10:51:00.975Z,18.1
2023-07-27T10:54:01.016Z,18.1
2023-07-27T10:57:01.008Z,18.1
2023-07-27T11:00:01.148Z,18
2023-07-27T11:03:01.325Z,18
2023-07-27T11:06:01.016Z,18
2023-07-27T11:09:01.046Z,18
2023-07-27T11:12:01.068Z,18
2023-07-27T11:15:01.011Z,18
2023-07-27T11:18:01.639Z,18
2023-07-27T11:21:01.016Z,18
2023-07-27T11:24:01.025Z,18
2023-07-27T11:27:00.998Z,18
2023-07-27T11:30:01.114Z,18
2023-07-27T11:33:01.130Z,18
2023-07-27T11:36:01.052Z,17.9
2023-07-27T11:39:01.066Z,17.9
2023-07-27T11:42:01.000Z,17.9
2023-07-27T11:45:01.070Z,17.9
2023-07-27T11:48:01.159Z,17.9
2023-07-27T11:51:01.065Z,17.9
2023-07-27T11:54:01.003Z,17.9
2023-07-27T11:57:04.470Z,17.9
2023-07-27T12:00:01.147Z,17.6
2023-07-27T12:03:21.207Z,17.6
2023-07-27T12:06:00.995Z,17.6
2023-07-27T12:09:00.992Z,17.6
2023-07-27T12:12:00.967Z,17.6
2023-07-27T12:15:01.036Z,17.6
2023-07-27T12:18:01.165Z,17.6
2023-07-27T12:21:29.818Z,17.6
2023-07-27T12:30:21.484Z,17.6
2023-07-27T12:33:01.153Z,17.7
2023-07-27T12:36:01.071Z,17.7
2023-07-27T12:39:01.098Z,17.7
2023-07-27T12:45:01.051Z,17.7
2023-07-27T12:48:01.099Z,17.7
2023-07-27T12:51:01.017Z,17.7
2023-07-27T12:54:00.991Z,17.7
2023-07-27T12:57:01.024Z,17.7
2023-07-27T13:00:01.206Z,17.7
2023-07-27T13:03:01.161Z,17.7
2023-07-27T13:06:01.035Z,17.7
2023-07-27T13:09:01.154Z,17.7
2023-07-27T13:12:01.044Z,17.7
2023-07-27T13:15:01.075Z,17.7
2023-07-27T13:18:01.097Z,17.7
2023-07-27T13:21:01.179Z,17.7
2023-07-27T13:24:01.018Z,17.7
2023-07-27T13:27:01.095Z,17.7
2023-07-27T13:30:01.219Z,17.7
2023-07-27T13:33:01.103Z,17.8
2023-07-27T13:36:00.965Z,17.8
2023-07-27T13:39:01.014Z,17.8
2023-07-27T13:42:01.040Z,17.8
2023-07-27T13:45:01.024Z,17.8
2023-07-27T13:48:10.468Z,17.8
2023-07-27T13:51:01.003Z,17.8
2023-07-27T13:54:01.053Z,17.8
2023-07-27T13:57:01.071Z,17.8
2023-07-27T14:00:01.146Z,17.8
2023-07-27T14:03:01.232Z,17.8
2023-07-27T14:06:01.135Z,17.8
2023-07-27T14:09:00.966Z,17.8
2023-07-27T14:12:01.094Z,18
2023-07-27T14:15:00.992Z,18
2023-07-27T14:18:01.286Z,18
2023-07-27T14:21:01.352Z,18
2023-07-27T14:24:01.169Z,18
2023-07-27T14:27:00.964Z,18
2023-07-27T14:30:01.095Z,18
2023-07-27T14:33:01.093Z,18
2023-07-27T14:36:01.029Z,18
2023-07-27T14:42:01.015Z,18
2023-07-27T14:45:01.027Z,18
2023-07-27T14:48:01.198Z,18
2023-07-27T14:51:01.020Z,18
2023-07-27T14:54:01.180Z,18
2023-07-27T14:57:02.875Z,18
2023-07-27T15:00:09.662Z,18
2023-07-27T15:06:01.201Z,18
2023-07-27T15:09:01.036Z,18
2023-07-27T15:12:01.096Z,18
2023-07-27T15:15:01.070Z,18
2023-07-27T15:18:01.155Z,18
2023-07-27T15:21:01.072Z,18
2023-07-27T15:24:01.015Z,18
2023-07-27T15:27:04.347Z,18
2023-07-27T15:30:01.089Z,18
2023-07-27T15:33:01.084Z,18
2023-07-27T15:36:00.998Z,18.4
2023-07-27T15:39:01.060Z,18.4
2023-07-27T15:42:00.981Z,18.4
2023-07-27T15:45:01.031Z,18.4
2023-07-27T15:48:01.205Z,18.4
2023-07-27T15:51:01.007Z,18.4
2023-07-27T15:54:01.015Z,18.4
2023-07-27T15:57:01.085Z,18.4
2023-07-27T16:00:01.245Z,18.4
2023-07-27T16:03:01.251Z,18.4
2023-07-27T16:06:01.070Z,18.4
2023-07-27T16:09:00.975Z,18.5
2023-07-27T16:12:01.116Z,18.5
2023-07-27T16:15:01.008Z,18.5
2023-07-27T16:18:01.040Z,18.5
2023-07-27T16:21:01.075Z,18.5
2023-07-27T16:24:01.010Z,18.5
2023-07-27T16:27:00.991Z,18.5
2023-07-27T16:30:01.023Z,18.5
2023-07-27T16:33:01.041Z,18.5
2023-07-27T16:36:00.995Z,18.5
2023-07-27T16:39:01.209Z,18.5
2023-07-27T16:42:01.465Z,18.5
2023-07-27T16:45:01.233Z,18.5
2023-07-27T16:48:01.103Z,18.5
2023-07-27T16:51:01.043Z,18.5
2023-07-27T16:54:01.095Z,18.5
2023-07-27T16:57:00.958Z,18.5
2023-07-27T17:00:01.021Z,18.5
2023-07-27T17:03:01.056Z,18.5
2023-07-27T17:06:01.295Z,18.7
2023-07-27T17:09:00.981Z,18.7
2023-07-27T17:12:01.067Z,18.7
2023-07-27T17:15:00.921Z,18.7
2023-07-27T17:18:01.201Z,18.7
2023-07-27T17:21:01.001Z,18.7
2023-07-27T17:24:01.080Z,18.7
2023-07-27T17:27:00.972Z,18.7
2023-07-27T17:30:01.019Z,18.7
2023-07-27T17:33:01.028Z,18.7
2023-07-27T17:36:00.993Z,18.7
2023-07-27T17:39:01.050Z,18.7
2023-07-27T17:42:01.033Z,18.7
2023-07-27T17:45:01.008Z,18.7
2023-07-27T17:48:01.062Z,18.7
2023-07-27T17:51:00.981Z,18.7
2023-07-27T17:54:01.112Z,18.7
2023-07-27T17:57:01.027Z,18.7
2023-07-27T18:00:01.095Z,18.7
2023-07-27T18:03:01.148Z,18.7
2023-07-27T18:06:01.114Z,18.7
2023-07-27T18:09:00.978Z,18.7
2023-07-27T18:12:01.110Z,18.7
2023-07-27T18:15:00.974Z,18.7
2023-07-27T18:18:01.117Z,18.6
2023-07-27T18:21:00.950Z,18.6
2023-07-27T18:24:08.763Z,18.6
2023-07-27T18:27:00.973Z,18.6
2023-07-27T18:30:01.008Z,18.6
2023-07-27T18:33:01.026Z,18.6
2023-07-27T18:36:01.071Z,18.6
2023-07-27T18:39:00.981Z,18.6
2023-07-27T18:42:01.060Z,18.6
2023-07-27T18:45:01.005Z,18.6
2023-07-27T18:48:01.170Z,18.6
2023-07-27T18:51:00.952Z,18.6
2023-07-27T18:54:01.022Z,18.6
2023-07-27T18:57:01.112Z,18.6
2023-07-27T19:00:01.036Z,18.6
2023-07-27T19:03:01.080Z,18.6
2023-07-27T19:06:01.021Z,18.6
2023-07-27T19:09:01.154Z,18.6
2023-07-27T19:12:01.000Z,18.6
2023-07-27T19:15:01.079Z,18.6
2023-07-27T19:18:01.037Z,18.6
2023-07-27T19:21:00.994Z,18.6
2023-07-27T19:24:01.856Z,18.6
2023-07-27T19:27:01.023Z,18.6
2023-07-27T19:30:00.974Z,18.6
2023-07-27T19:33:01.069Z,18.6
2023-07-27T19:36:00.966Z,18.6
2023-07-27T19:39:01.092Z,18.6
2023-07-27T19:42:00.962Z,18.6
2023-07-27T19:45:00.991Z,18.6
2023-07-27T19:48:01.003Z,18.6
2023-07-27T19:51:00.991Z,18.6
2023-07-27T19:54:01.011Z,18.6
2023-07-27T19:57:00.948Z,18.6
2023-07-27T20:00:01.102Z,18.6
2023-07-27T20:03:01.067Z,18.6
2023-07-27T20:06:01.017Z,18.6
2023-07-27T20:09:01.016Z,18.6
2023-07-27T20:12:01.023Z,18.6
2023-07-27T20:15:00.982Z,18.6
2023-07-27T20:18:01.046Z,18.6
2023-07-27T20:21:01.680Z,18.6
2023-07-27T20:24:01.072Z,18.6
2023-07-27T20:27:01.028Z,18.6
2023-07-27T20:30:01.057Z,18.6
2023-07-27T20:33:01.050Z,18.6
2023-07-27T20:36:01.181Z,18.6
2023-07-27T20:39:01.037Z,18.6
2023-07-27T20:42:00.983Z,18.6
2023-07-27T20:45:01.275Z,18.6
2023-07-27T20:48:01.054Z,18.6
2023-07-27T20:51:00.969Z,18.6
2023-07-27T20:54:00.948Z,18.6
2023-07-27T20:57:00.996Z,18.6
2023-07-27T21:00:00.942Z,18.6
2023-07-27T21:03:01.037Z,18.6
2023-07-27T21:06:01.001Z,18.6
2023-07-27T21:09:01.023Z,18.6
2023-07-27T21:12:01.009Z,18.6
2023-07-27T21:15:00.965Z,18.6
2023-07-27T21:18:01.050Z,18.6
2023-07-27T21:21:00.939Z,18.6
2023-07-27T21:24:01.150Z,18.6
2023-07-27T21:27:01.003Z,18.6
2023-07-27T21:30:01.217Z,18.6
2023-07-27T21:33:02.734Z,18.6
2023-07-27T21:36:00.966Z,18.6
2023-07-27T21:39:00.973Z,18.6
2023-07-27T21:42:01.113Z,18.2
2023-07-27T21:45:00.988Z,18.2
2023-07-27T21:48:01.052Z,18.2
2023-07-27T21:51:01.002Z,18.2
2023-07-27T21:54:01.054Z,18.2
2023-07-27T21:57:00.944Z,18.2
2023-07-27T22:00:01.457Z,18.2
2023-07-27T22:03:01.005Z,18.2
2023-07-27T22:06:00.981Z,18.2
2023-07-27T22:09:00.990Z,18.2
2023-07-27T22:12:00.981Z,18.2
2023-07-27T22:15:00.942Z,18.2
2023-07-27T22:18:01.089Z,18.2
2023-07-27T22:21:00.991Z,18.3
2023-07-27T22:24:01.013Z,18.3
2023-07-27T22:27:00.957Z,18.3
2023-07-27T22:30:00.957Z,18.3
2023-07-27T22:33:01.052Z,18.3
2023-07-27T22:36:01.001Z,18.3
2023-07-27T22:39:00.986Z,18.3
2023-07-27T22:42:00.951Z,18.3
2023-07-27T22:45:00.910Z,18.3
2023-07-27T22:48:00.984Z,18.3
2023-07-27T22:51:00.951Z,18.3
2023-07-27T22:54:01.014Z,18.3
2023-07-27T22:57:00.961Z,18.3
2023-07-27T23:00:00.945Z,18.3
2023-07-27T23:03:01.065Z,18.3
2023-07-27T23:06:01.045Z,18.3
2023-07-27T23:09:00.962Z,18.3
2023-07-27T23:12:01.010Z,18.3
2023-07-27T23:15:03.848Z,18.3
2023-07-27T23:18:01.026Z,18.3
2023-07-27T23:21:01.107Z,18.3
2023-07-27T23:24:00.972Z,18.3
2023-07-27T23:27:01.085Z,18.3
2023-07-27T23:30:00.972Z,18.3
2023-07-27T23:33:00.978Z,18.3
2023-07-27T23:36:01.285Z,18.3
2023-07-27T23:39:00.959Z,18.3
2023-07-27T23:42:01.028Z,18.3
2023-07-27T23:45:01.011Z,18.3
2023-07-27T23:48:01.156Z,18.3
2023-07-27T23:51:00.970Z,18.3
2023-07-27T23:54:01.077Z,18.3
2023-07-27T23:57:00.982Z,18.3
